sensor_id;sensor_type;location;lat;lon;timestamp;temperature;humidity
27667;DHT22;15074;50.940;5.282;2024-01-16T06:50:43;-1.80;99.90
27667;DHT22;15074;50.940;5.282;2024-01-16T06:56:35;-1.70;99.90
27667;DHT22;15074;50.940;5.282;2024-01-16T06:59:00;-1.60;99.90
27667;DHT22;15074;50.940;5.282;2024-01-16T07:01:31;-1.50;99.90
27667;DHT22;15074;50.940;5.282;2024-01-16T07:10:53;-1.60;99.90
27667;DHT22;15074;50.940;5.282;2024-01-16T07:56:28;-1.40;99.90
27667;DHT22;15074;50.940;5.282;2024-01-16T07:58:54;-1.30;99.90
27667;DHT22;15074;50.940;5.282;2024-01-16T08:01:20;-1.30;99.90
27667;DHT22;15074;50.940;5.282;2024-01-16T08:03:51;-1.30;99.90
27667;DHT22;15074;50.940;5.282;2024-01-16T08:06:47;-1.10;99.90
27667;DHT22;15074;50.940;5.282;2024-01-16T08:37:44;-0.30;99.90
27667;DHT22;15074;50.940;5.282;2024-01-16T08:43:18;-0.10;99.90
27667;DHT22;15074;50.940;5.282;2024-01-16T08:45:44;-0.10;99.90
27667;DHT22;15074;50.940;5.282;2024-01-16T08:48:10;-0.10;99.90
27667;DHT22;15074;50.940;5.282;2024-01-16T08:50:38;0.00;99.90
27667;DHT22;15074;50.940;5.282;2024-01-16T08:53:10;0.20;99.90
27667;DHT22;15074;50.940;5.282;2024-01-16T08:55:55;0.00;99.90
27667;DHT22;15074;50.940;5.282;2024-01-16T08:58:23;-0.10;99.90
27667;DHT22;15074;50.940;5.282;2024-01-16T09:00:52;0.00;99.90
27667;DHT22;15074;50.940;5.282;2024-01-16T09:06:44;0.00;99.90
27667;DHT22;15074;50.940;5.282;2024-01-16T09:09:11;0.00;99.90
27667;DHT22;15074;50.940;5.282;2024-01-16T09:15:05;-0.10;99.90
27667;DHT22;15074;50.940;5.282;2024-01-16T09:20:53;-0.10;99.90
27667;DHT22;15074;50.940;5.282;2024-01-16T09:23:22;-0.10;99.90
27667;DHT22;15074;50.940;5.282;2024-01-16T09:25:49;0.20;99.90
27667;DHT22;15074;50.940;5.282;2024-01-16T09:28:21;0.10;99.90
27667;DHT22;15074;50.940;5.282;2024-01-16T09:33:54;0.20;99.90
27667;DHT22;15074;50.940;5.282;2024-01-16T09:36:21;0.30;99.90
27667;DHT22;15074;50.940;5.282;2024-01-16T09:38:47;0.20;99.90
27667;DHT22;15074;50.940;5.282;2024-01-16T09:41:36;0.40;99.90
27667;DHT22;15074;50.940;5.282;2024-01-16T09:44:03;0.40;99.90
27667;DHT22;15074;50.940;5.282;2024-01-16T09:53:14;0.90;99.90
27667;DHT22;15074;50.940;5.282;2024-01-16T09:56:38;1.50;99.90
27667;DHT22;15074;50.940;5.282;2024-01-16T09:59:33;2.30;99.90
27667;DHT22;15074;50.940;5.282;2024-01-16T10:02:02;3.60;99.90
27667;DHT22;15074;50.940;5.282;2024-01-16T10:04:34;4.70;99.90
27667;DHT22;15074;50.940;5.282;2024-01-16T10:07:01;5.30;99.90
27667;DHT22;15074;50.940;5.282;2024-01-16T10:09:27;5.70;99.90
27667;DHT22;15074;50.940;5.282;2024-01-16T10:11:54;6.30;99.90
27667;DHT22;15074;50.940;5.282;2024-01-16T10:14:20;7.00;99.90
27667;DHT22;15074;50.940;5.282;2024-01-16T10:17:02;6.70;99.90
27667;DHT22;15074;50.940;5.282;2024-01-16T10:19:52;6.20;99.90
27667;DHT22;15074;50.940;5.282;2024-01-16T10:22:23;6.60;99.90
27667;DHT22;15074;50.940;5.282;2024-01-16T10:25:12;7.00;99.90
27667;DHT22;15074;50.940;5.282;2024-01-16T10:27:42;7.10;99.90
27667;DHT22;15074;50.940;5.282;2024-01-16T10:30:09;7.00;99.90
27667;DHT22;15074;50.940;5.282;2024-01-16T10:32:42;6.60;99.90
27667;DHT22;15074;50.940;5.282;2024-01-16T10:35:13;6.70;99.90
27667;DHT22;15074;50.940;5.282;2024-01-16T10:37:53;6.30;99.90
27667;DHT22;15074;50.940;5.282;2024-01-16T10:40:20;5.90;99.90
27667;DHT22;15074;50.940;5.282;2024-01-16T10:43:00;5.70;99.90
27667;DHT22;15074;50.940;5.282;2024-01-16T10:45:26;6.60;99.90
27667;DHT22;15074;50.940;5.282;2024-01-16T10:48:06;6.40;99.90
27667;DHT22;15074;50.940;5.282;2024-01-16T10:50:33;6.80;99.90
27667;DHT22;15074;50.940;5.282;2024-01-16T10:53:08;7.40;99.90
27667;DHT22;15074;50.940;5.282;2024-01-16T10:56:00;7.90;99.90
27667;DHT22;15074;50.940;5.282;2024-01-16T10:58:26;7.80;99.90
27667;DHT22;15074;50.940;5.282;2024-01-16T11:00:57;7.50;99.90
27667;DHT22;15074;50.940;5.282;2024-01-16T11:03:37;7.80;99.90
27667;DHT22;15074;50.940;5.282;2024-01-16T11:06:06;7.80;99.90
27667;DHT22;15074;50.940;5.282;2024-01-16T11:08:35;8.00;99.90
27667;DHT22;15074;50.940;5.282;2024-01-16T11:11:02;8.30;99.90
27667;DHT22;15074;50.940;5.282;2024-01-16T11:13:31;8.80;99.90
27667;DHT22;15074;50.940;5.282;2024-01-16T11:15:59;8.80;99.90
27667;DHT22;15074;50.940;5.282;2024-01-16T11:18:26;8.70;99.90
27667;DHT22;15074;50.940;5.282;2024-01-16T11:20:54;8.60;99.90
27667;DHT22;15074;50.940;5.282;2024-01-16T11:23:19;8.50;99.90
27667;DHT22;15074;50.940;5.282;2024-01-16T11:25:45;8.50;99.90
27667;DHT22;15074;50.940;5.282;2024-01-16T11:28:13;9.10;99.90
27667;DHT22;15074;50.940;5.282;2024-01-16T11:30:39;9.00;99.90
27667;DHT22;15074;50.940;5.282;2024-01-16T11:33:07;8.70;99.90
27667;DHT22;15074;50.940;5.282;2024-01-16T11:35:52;7.30;99.90
27667;DHT22;15074;50.940;5.282;2024-01-16T11:38:18;7.60;99.90
27667;DHT22;15074;50.940;5.282;2024-01-16T11:40:45;7.50;99.90
27667;DHT22;15074;50.940;5.282;2024-01-16T11:43:35;7.90;99.90
27667;DHT22;15074;50.940;5.282;2024-01-16T11:47:01;8.00;99.90
27667;DHT22;15074;50.940;5.282;2024-01-16T11:49:28;8.00;99.90
27667;DHT22;15074;50.940;5.282;2024-01-16T11:51:55;7.70;99.90
27667;DHT22;15074;50.940;5.282;2024-01-16T11:54:22;8.10;99.90
27667;DHT22;15074;50.940;5.282;2024-01-16T11:57:07;8.00;99.90
27667;DHT22;15074;50.940;5.282;2024-01-16T12:00:03;7.80;99.90
27667;DHT22;15074;50.940;5.282;2024-01-16T12:05:11;7.10;99.90
27667;DHT22;15074;50.940;5.282;2024-01-16T12:07:45;7.40;99.90
27667;DHT22;15074;50.940;5.282;2024-01-16T12:10:11;7.50;99.90
27667;DHT22;15074;50.940;5.282;2024-01-16T12:12:37;7.30;99.90
27667;DHT22;15074;50.940;5.282;2024-01-16T12:15:20;7.10;99.90
27667;DHT22;15074;50.940;5.282;2024-01-16T12:17:56;7.70;99.90
27667;DHT22;15074;50.940;5.282;2024-01-16T12:20:24;8.00;99.90
27667;DHT22;15074;50.940;5.282;2024-01-16T12:22:57;8.30;99.90
27667;DHT22;15074;50.940;5.282;2024-01-16T12:25:23;8.70;99.90
27667;DHT22;15074;50.940;5.282;2024-01-16T12:28:00;8.40;99.90
27667;DHT22;15074;50.940;5.282;2024-01-16T12:30:27;8.20;99.90
27667;DHT22;15074;50.940;5.282;2024-01-16T12:33:21;8.10;99.90
27667;DHT22;15074;50.940;5.282;2024-01-16T12:35:47;8.40;99.90
27667;DHT22;15074;50.940;5.282;2024-01-16T12:38:13;7.60;99.90
27667;DHT22;15074;50.940;5.282;2024-01-16T12:40:40;7.00;99.90
27667;DHT22;15074;50.940;5.282;2024-01-16T12:43:08;7.30;99.90
27667;DHT22;15074;50.940;5.282;2024-01-16T12:45:37;7.90;99.90
27667;DHT22;15074;50.940;5.282;2024-01-16T12:48:03;8.10;99.90
27667;DHT22;15074;50.940;5.282;2024-01-16T12:50:29;8.30;99.90
27667;DHT22;15074;50.940;5.282;2024-01-16T12:53:10;8.20;99.90
27667;DHT22;15074;50.940;5.282;2024-01-16T12:55:39;7.60;99.90
27667;DHT22;15074;50.940;5.282;2024-01-16T12:58:21;7.60;99.90
27667;DHT22;15074;50.940;5.282;2024-01-16T13:00:52;7.50;99.90
27667;DHT22;15074;50.940;5.282;2024-01-16T13:03:24;7.40;99.90
27667;DHT22;15074;50.940;5.282;2024-01-16T13:05:59;7.30;99.90
27667;DHT22;15074;50.940;5.282;2024-01-16T13:08:26;7.50;99.90
27667;DHT22;15074;50.940;5.282;2024-01-16T13:11:08;7.10;99.90
27667;DHT22;15074;50.940;5.282;2024-01-16T13:13:35;6.80;99.90
27667;DHT22;15074;50.940;5.282;2024-01-16T13:16:03;6.90;99.90
27667;DHT22;15074;50.940;5.282;2024-01-16T13:18:31;7.20;99.90
27667;DHT22;15074;50.940;5.282;2024-01-16T13:20:58;7.20;99.90
27667;DHT22;15074;50.940;5.282;2024-01-16T13:23:25;7.40;99.90
27667;DHT22;15074;50.940;5.282;2024-01-16T13:25:51;7.50;99.90
27667;DHT22;15074;50.940;5.282;2024-01-16T13:28:18;7.30;99.90
27667;DHT22;15074;50.940;5.282;2024-01-16T13:30:45;7.50;99.90
27667;DHT22;15074;50.940;5.282;2024-01-16T13:33:12;7.30;99.90
27667;DHT22;15074;50.940;5.282;2024-01-16T13:35:43;7.10;99.90
27667;DHT22;15074;50.940;5.282;2024-01-16T13:38:09;6.80;99.90
27667;DHT22;15074;50.940;5.282;2024-01-16T13:40:36;6.80;99.90
27667;DHT22;15074;50.940;5.282;2024-01-16T13:43:05;6.60;99.90
27667;DHT22;15074;50.940;5.282;2024-01-16T13:45:32;6.00;99.90
27667;DHT22;15074;50.940;5.282;2024-01-16T13:47:59;6.30;99.90
27667;DHT22;15074;50.940;5.282;2024-01-16T13:50:26;6.00;99.90
27667;DHT22;15074;50.940;5.282;2024-01-16T13:52:52;5.70;99.90
27667;DHT22;15074;50.940;5.282;2024-01-16T13:55:20;6.10;99.90
27667;DHT22;15074;50.940;5.282;2024-01-16T13:57:45;5.90;99.90
27667;DHT22;15074;50.940;5.282;2024-01-16T14:00:13;6.30;99.90
27667;DHT22;15074;50.940;5.282;2024-01-16T14:02:43;6.30;99.90
27667;DHT22;15074;50.940;5.282;2024-01-16T14:05:12;6.10;99.90
27667;DHT22;15074;50.940;5.282;2024-01-16T14:07:43;6.30;99.90
27667;DHT22;15074;50.940;5.282;2024-01-16T14:10:14;6.20;99.90
27667;DHT22;15074;50.940;5.282;2024-01-16T14:12:41;6.10;99.90
27667;DHT22;15074;50.940;5.282;2024-01-16T14:15:11;5.90;99.90
27667;DHT22;15074;50.940;5.282;2024-01-16T14:17:50;5.40;99.90
27667;DHT22;15074;50.940;5.282;2024-01-16T14:20:18;5.40;99.90
27667;DHT22;15074;50.940;5.282;2024-01-16T14:22:56;5.80;99.90
27667;DHT22;15074;50.940;5.282;2024-01-16T14:25:22;5.80;99.90
27667;DHT22;15074;50.940;5.282;2024-01-16T14:28:00;5.50;99.90
27667;DHT22;15074;50.940;5.282;2024-01-16T14:30:31;5.60;99.90
27667;DHT22;15074;50.940;5.282;2024-01-16T14:32:57;5.70;99.90
27667;DHT22;15074;50.940;5.282;2024-01-16T14:35:23;5.50;99.90
27667;DHT22;15074;50.940;5.282;2024-01-16T14:37:50;5.50;99.90
27667;DHT22;15074;50.940;5.282;2024-01-16T14:40:16;5.40;99.90
27667;DHT22;15074;50.940;5.282;2024-01-16T14:42:54;5.20;99.90
27667;DHT22;15074;50.940;5.282;2024-01-16T14:45:25;5.10;99.90
27667;DHT22;15074;50.940;5.282;2024-01-16T14:47:53;5.10;99.90
27667;DHT22;15074;50.940;5.282;2024-01-16T14:50:21;4.80;99.90
27667;DHT22;15074;50.940;5.282;2024-01-16T14:52:51;4.90;99.90
27667;DHT22;15074;50.940;5.282;2024-01-16T14:55:17;4.90;99.90
27667;DHT22;15074;50.940;5.282;2024-01-16T14:57:45;4.60;99.90
27667;DHT22;15074;50.940;5.282;2024-01-16T15:00:16;4.50;99.90
27667;DHT22;15074;50.940;5.282;2024-01-16T15:02:46;4.40;99.90
27667;DHT22;15074;50.940;5.282;2024-01-16T15:05:14;4.10;99.90
27667;DHT22;15074;50.940;5.282;2024-01-16T15:07:40;4.00;99.90
27667;DHT22;15074;50.940;5.282;2024-01-16T15:13:55;3.40;99.90
27667;DHT22;15074;50.940;5.282;2024-01-16T15:16:22;3.20;99.90
27667;DHT22;15074;50.940;5.282;2024-01-16T15:18:49;3.10;99.90
27667;DHT22;15074;50.940;5.282;2024-01-16T15:21:15;3.00;99.90
27667;DHT22;15074;50.940;5.282;2024-01-16T15:24:01;2.90;99.90
27667;DHT22;15074;50.940;5.282;2024-01-16T15:26:27;2.80;99.90
27667;DHT22;15074;50.940;5.282;2024-01-16T15:28:53;2.70;99.90
27667;DHT22;15074;50.940;5.282;2024-01-16T15:34:49;2.70;99.90
27667;DHT22;15074;50.940;5.282;2024-01-16T15:37:15;2.40;99.90
27667;DHT22;15074;50.940;5.282;2024-01-16T15:39:59;2.10;99.90
27667;DHT22;15074;50.940;5.282;2024-01-16T15:42:25;1.80;99.90
27667;DHT22;15074;50.940;5.282;2024-01-16T15:44:54;1.80;99.90
27667;DHT22;15074;50.940;5.282;2024-01-16T15:47:20;1.80;99.90
27667;DHT22;15074;50.940;5.282;2024-01-16T15:50:07;1.60;99.90
27667;DHT22;15074;50.940;5.282;2024-01-16T15:52:32;1.40;99.90
27667;DHT22;15074;50.940;5.282;2024-01-16T15:54:59;1.40;99.90
27667;DHT22;15074;50.940;5.282;2024-01-16T15:57:24;1.30;99.90
27667;DHT22;15074;50.940;5.282;2024-01-16T15:59:50;1.20;99.90
27667;DHT22;15074;50.940;5.282;2024-01-16T16:05:55;1.00;99.90
27667;DHT22;15074;50.940;5.282;2024-01-16T16:12:02;0.80;99.90
27667;DHT22;15074;50.940;5.282;2024-01-16T16:14:28;0.70;99.90
27667;DHT22;15074;50.940;5.282;2024-01-16T16:16:58;0.60;99.90
27667;DHT22;15074;50.940;5.282;2024-01-16T16:19:30;0.60;99.90
27667;DHT22;15074;50.940;5.282;2024-01-16T16:22:26;0.60;99.90
27667;DHT22;15074;50.940;5.282;2024-01-16T16:24:52;0.60;99.90
27667;DHT22;15074;50.940;5.282;2024-01-16T16:38:09;0.00;99.90
27667;DHT22;15074;50.940;5.282;2024-01-16T17:15:04;-0.30;99.90
27667;DHT22;15074;50.940;5.282;2024-01-16T17:24:56;-0.40;99.90
27667;DHT22;15074;50.940;5.282;2024-01-16T19:31:49;-1.50;99.90
27667;DHT22;15074;50.940;5.282;2024-01-16T19:49:26;-1.70;99.90
27667;DHT22;15074;50.940;5.282;2024-01-16T20:22:57;-1.80;99.90
27667;DHT22;15074;50.940;5.282;2024-01-16T20:35:41;-2.10;99.90
27667;DHT22;15074;50.940;5.282;2024-01-16T20:55:42;-2.20;99.90
27667;DHT22;15074;50.940;5.282;2024-01-16T21:53:42;-2.40;99.90
27667;DHT22;15074;50.940;5.282;2024-01-16T22:03:04;-2.40;99.90
27667;DHT22;15074;50.940;5.282;2024-01-16T22:39:49;-2.90;99.90
27667;DHT22;15074;50.940;5.282;2024-01-16T23:34:48;-2.80;99.90
